Lemon Cove, CA

1:31 PM PDT on April 29, 2017 (GMT -0700)
ROAD RUNNER BLUFF | | Change Station

Elev 300 ft 36.33 °N, 119.06 °W | Updated 18 seconds ago

Clear
Clear
77.2 °F
Feels Like 78 °F
N
2.7
Wind Variable Wind from West
Gusts 5.4 mph

Today
High -- | Low -- °F
--% Chance of Precip.
Yesterday
High -- | Low -- °F
Precip. -- in
Pressure 30.13 in
Visibility 10.0 miles
Clouds Clear
Heat Index 78 °F
Dew Point 48 °F
Humidity 35%
Rainfall 0.00 in
Snow Depth Not available.
6:04 AM 7:42 PM
Waxing Crescent, 16% visible
METAR KVIS 291956Z AUTO 00000KT 10SM CLR 23/03 A3010 RMK AO2 SLP201 T02280028
Pressure 30.13 in
Visibility 10.0 miles
Clouds Clear
Heat Index 78 °F
Dew Point 48 °F
Humidity 35%
Rainfall 0.00 in
Snow Depth Not available.
6:04 AM 7:42 PM
Waxing Crescent, 16% visible
METAR KVIS 291956Z AUTO 00000KT 10SM CLR 23/03 A3010 RMK AO2 SLP201 T02280028

Get Severe Weather Alerts

Thanks for signing up!

Be on the lookout for a verification email in your inbox.

You'll start receiving the daily forecast at 8 AM.

×

10-Day Weather Forecast

Almanac

Astronomy

Apr. 29, 2017 Rise Set
Actual Time
Civil Twilight
Nautical Twilight
Astronomical Twilight
Moon
Length of Visible Light
Length of Day
Tomorrow will be .
, % of the Moon is Illuminated

Today's Extremes

State Highs State Lows

Community

WunderPhotos

WunderBlog® & News

Nearby

Air Quality

  Air Quality AQ Index Pollutant
Not available.

Snow Depth

Station Depth Elevation

Earthquake Activity

City Distance Mag. Time & Date
Minimum magnitude displayed is 2.5.

Coastal Water Temperatures

Place Temperature

Stations

Nearby Weather Stations

Station Location Temp. Windchill Dew Point Humidity Wind Precip. Elev Updated Type
                   

Watches & Warnings

There are currently no watches in effect.